createdAt,value
2022-09-24T00:01:44.174Z,7.57
2022-09-24T00:04:13.428Z,7.77
2022-09-24T00:06:43.435Z,8.03
2022-09-24T00:09:12.141Z,8.53
2022-09-24T00:11:40.446Z,6.97
2022-09-24T00:14:08.800Z,6.87
2022-09-24T00:16:37.099Z,6.73
2022-09-24T00:19:05.798Z,7.50
2022-09-24T00:21:34.779Z,8.43
2022-09-24T00:24:04.676Z,7.13
2022-09-24T00:26:51.079Z,7.53
2022-09-24T00:29:23.251Z,7.13
2022-09-24T00:31:51.832Z,7.60
2022-09-24T00:34:20.291Z,7.30
2022-09-24T00:36:48.673Z,8.20
2022-09-24T00:39:16.932Z,7.53
2022-09-24T00:41:47.476Z,7.87
2022-09-24T00:44:34.325Z,9.03
2022-09-24T00:47:02.290Z,7.07
2022-09-24T00:49:30.245Z,8.20
2022-09-24T00:51:58.589Z,7.17
2022-09-24T00:54:28.724Z,7.37
2022-09-24T00:56:58.235Z,8.63
2022-09-24T00:59:26.313Z,7.00
2022-09-24T01:01:55.634Z,6.93
2022-09-24T01:04:23.588Z,7.40
2022-09-24T01:06:52.034Z,7.47
2022-09-24T01:09:21.253Z,8.30
2022-09-24T01:11:54.507Z,8.40
2022-09-24T01:14:34.746Z,8.03
2022-09-24T01:17:11.936Z,7.80
2022-09-24T01:19:58.853Z,8.87
2022-09-24T01:22:39.176Z,6.93
2022-09-24T01:25:07.217Z,7.20
2022-09-24T01:27:39.591Z,8.83
2022-09-24T01:30:09.047Z,7.63
2022-09-24T01:32:40.415Z,7.50
2022-09-24T01:35:16.261Z,7.67
2022-09-24T01:37:46.459Z,6.70
2022-09-24T01:40:15.219Z,7.57
2022-09-24T01:42:44.588Z,6.80
2022-09-24T01:45:12.753Z,8.27
2022-09-24T01:47:41.695Z,7.67
2022-09-24T01:50:10.874Z,6.50
2022-09-24T01:52:53.642Z,8.00
2022-09-24T01:55:24.815Z,7.10
2022-09-24T01:58:12.938Z,6.63
2022-09-24T02:00:44.426Z,7.67
2022-09-24T02:03:14.301Z,7.00
2022-09-24T02:05:48.358Z,7.33
2022-09-24T02:08:19.676Z,7.40
2022-09-24T02:11:06.272Z,8.37
2022-09-24T02:13:40.008Z,7.63
2022-09-24T02:16:10.603Z,8.77
2022-09-24T02:18:40.807Z,6.40
2022-09-24T02:21:10.534Z,7.23
2022-09-24T02:23:40.415Z,9.90
2022-09-24T02:26:09.755Z,6.87
2022-09-24T02:28:37.767Z,7.50
2022-09-24T02:31:10.991Z,7.67
2022-09-24T02:34:07.527Z,6.60
2022-09-24T02:36:35.778Z,7.50
2022-09-24T02:39:03.761Z,7.33
2022-09-24T02:41:32.479Z,8.87
2022-09-24T02:44:00.395Z,7.40
2022-09-24T02:46:28.302Z,10.77
2022-09-24T02:48:56.687Z,7.30
2022-09-24T02:51:24.680Z,7.17
2022-09-24T02:53:52.666Z,7.50
2022-09-24T02:56:20.506Z,7.70
2022-09-24T02:58:48.452Z,6.77
2022-09-24T03:01:16.806Z,7.33
2022-09-24T03:03:44.792Z,7.60
2022-09-24T03:06:13.855Z,8.70
2022-09-24T03:08:42.666Z,8.17
2022-09-24T03:11:15.059Z,6.53
2022-09-24T03:13:45.797Z,8.40
2022-09-24T03:16:13.779Z,6.37
2022-09-24T03:18:41.667Z,7.23
2022-09-24T03:21:11.162Z,7.20
2022-09-24T03:23:39.736Z,7.10
2022-09-24T03:26:07.690Z,7.13
2022-09-24T03:28:35.757Z,6.73
2022-09-24T03:31:03.749Z,6.80
2022-09-24T03:33:34.694Z,7.23
2022-09-24T03:36:06.384Z,9.87
2022-09-24T03:38:34.712Z,8.17
2022-09-24T03:41:02.987Z,7.33
2022-09-24T03:43:31.672Z,8.37
2022-09-24T03:45:59.582Z,7.13
2022-09-24T03:48:28.107Z,7.10
2022-09-24T03:50:55.965Z,7.17
2022-09-24T03:53:24.019Z,6.53
2022-09-24T03:55:57.699Z,7.10
2022-09-24T03:58:25.801Z,7.13
2022-09-24T04:00:54.295Z,7.53
2022-09-24T04:03:23.306Z,8.17
2022-09-24T04:05:51.601Z,7.70
2022-09-24T04:08:20.092Z,8.33
2022-09-24T04:10:49.111Z,8.03
2022-09-24T04:13:17.634Z,6.33
2022-09-24T04:15:45.761Z,7.73
2022-09-24T04:18:13.699Z,7.70
2022-09-24T04:20:42.162Z,8.23
2022-09-24T04:23:11.528Z,8.93
2022-09-24T04:25:40.899Z,7.97
2022-09-24T04:28:10.340Z,6.57
2022-09-24T04:30:38.963Z,7.47
2022-09-24T04:33:07.736Z,6.83
2022-09-24T04:35:36.823Z,8.00
2022-09-24T04:38:05.545Z,7.03
2022-09-24T04:40:34.077Z,8.13
2022-09-24T04:43:02.053Z,8.67
2022-09-24T04:45:30.227Z,7.50
2022-09-24T04:47:58.212Z,7.03
2022-09-24T04:50:29.486Z,7.20
2022-09-24T04:52:57.859Z,7.90
2022-09-24T04:55:26.780Z,7.40
2022-09-24T04:57:58.293Z,7.77
2022-09-24T05:00:26.617Z,6.30
2022-09-24T05:02:59.547Z,6.33
2022-09-24T05:05:28.465Z,6.60
2022-09-24T05:07:59.539Z,7.07
2022-09-24T05:10:27.846Z,9.03
2022-09-24T05:12:56.477Z,6.50
2022-09-24T05:15:24.607Z,6.70
2022-09-24T05:17:52.700Z,7.90
2022-09-24T05:20:20.685Z,7.00
2022-09-24T05:22:49.779Z,6.10
2022-09-24T05:25:19.172Z,7.17
2022-09-24T05:27:47.769Z,7.90
2022-09-24T05:30:16.237Z,8.23
2022-09-24T05:32:44.231Z,7.73
2022-09-24T05:35:13.946Z,7.43
2022-09-24T05:37:42.074Z,6.97
2022-09-24T05:40:28.954Z,7.97
2022-09-24T05:43:03.618Z,7.27
2022-09-24T05:45:31.994Z,6.63
2022-09-24T05:48:00.459Z,5.80
2022-09-24T05:50:28.615Z,7.90
2022-09-24T05:52:56.619Z,7.30
2022-09-24T05:55:27.627Z,7.67
2022-09-24T05:58:03.022Z,8.40
2022-09-24T06:00:31.029Z,6.53
2022-09-24T06:03:11.794Z,6.73
2022-09-24T06:05:39.769Z,7.00
2022-09-24T06:08:08.334Z,6.73
2022-09-24T06:10:37.303Z,6.77
2022-09-24T06:13:05.428Z,6.47
2022-09-24T06:15:33.394Z,7.17
2022-09-24T06:18:01.706Z,7.60
2022-09-24T06:20:29.623Z,7.63
2022-09-24T06:22:58.051Z,6.43
2022-09-24T06:25:26.404Z,6.53
2022-09-24T06:27:56.735Z,6.23
2022-09-24T06:30:24.695Z,7.10
2022-09-24T06:32:53.069Z,7.03
2022-09-24T06:35:21.257Z,6.77
2022-09-24T06:37:49.502Z,7.10
2022-09-24T06:40:17.543Z,6.87
2022-09-24T06:42:45.442Z,7.97
2022-09-24T06:45:13.589Z,6.53
2022-09-24T06:47:41.449Z,8.00
2022-09-24T06:50:09.594Z,8.13
2022-09-24T06:52:37.625Z,6.93
2022-09-24T06:55:05.657Z,7.43
2022-09-24T06:57:33.604Z,8.90
2022-09-24T07:00:01.551Z,7.70
2022-09-24T07:02:31.468Z,7.90
2022-09-24T07:04:59.458Z,7.70
2022-09-24T07:07:30.352Z,9.67
2022-09-24T07:09:58.510Z,8.00
2022-09-24T07:12:26.541Z,8.00
2022-09-24T07:14:54.547Z,9.27
2022-09-24T07:17:22.487Z,8.10
2022-09-24T07:19:50.406Z,9.63
2022-09-24T07:22:18.608Z,9.97
2022-09-24T07:24:46.734Z,11.97
2022-09-24T07:27:15.398Z,10.07
2022-09-24T07:29:43.333Z,11.70
2022-09-24T07:32:11.290Z,9.80
2022-09-24T07:34:39.179Z,10.57
2022-09-24T07:37:07.085Z,9.90
2022-09-24T07:39:35.191Z,9.40
2022-09-24T07:42:03.115Z,9.47
2022-09-24T07:44:31.838Z,11.10
2022-09-24T07:46:59.761Z,12.50
2022-09-24T07:49:30.083Z,10.63
2022-09-24T07:51:57.987Z,10.90
2022-09-24T07:54:26.705Z,9.93
2022-09-24T07:56:54.727Z,11.73
2022-09-24T07:59:22.858Z,11.10
2022-09-24T08:01:50.840Z,10.07
2022-09-24T08:04:18.862Z,9.77
2022-09-24T08:06:47.630Z,9.90
2022-09-24T08:09:17.295Z,9.67
2022-09-24T08:11:45.215Z,9.97
2022-09-24T08:14:13.206Z,8.73
2022-09-24T08:16:41.561Z,8.97
2022-09-24T08:19:14.302Z,8.63
2022-09-24T08:21:42.222Z,9.70
2022-09-24T08:24:10.414Z,10.03
2022-09-24T08:26:38.447Z,8.93
2022-09-24T08:29:06.306Z,11.67
2022-09-24T08:31:37.590Z,10.33
2022-09-24T08:34:05.699Z,10.70
2022-09-24T08:36:33.678Z,9.53
2022-09-24T08:39:01.635Z,9.53
2022-09-24T08:41:36.048Z,9.60
2022-09-24T08:44:12.365Z,11.20
2022-09-24T08:47:00.443Z,9.23
2022-09-24T08:49:30.165Z,9.07
2022-09-24T08:52:11.230Z,9.60
2022-09-24T08:54:39.614Z,10.90
2022-09-24T08:57:12.611Z,11.63
2022-09-24T08:59:43.454Z,10.13
2022-09-24T09:02:38.195Z,10.23
2022-09-24T09:05:30.153Z,10.57
2022-09-24T09:07:58.175Z,10.03
2022-09-24T09:10:29.459Z,10.30
2022-09-24T09:12:59.811Z,12.43
2022-09-24T09:15:33.324Z,10.23
2022-09-24T09:18:20.475Z,9.40
2022-09-24T09:20:50.335Z,9.83
2022-09-24T09:23:22.486Z,9.70
2022-09-24T09:25:56.431Z,9.67
2022-09-24T09:28:24.454Z,9.70
2022-09-24T09:31:01.059Z,10.13
2022-09-24T09:33:47.807Z,9.63
2022-09-24T09:36:28.543Z,11.23
2022-09-24T09:39:08.503Z,10.97
2022-09-24T09:41:41.433Z,10.03
2022-09-24T09:44:14.641Z,10.10
2022-09-24T09:46:46.283Z,9.80
2022-09-24T09:49:15.281Z,11.60
2022-09-24T09:51:43.926Z,10.90
2022-09-24T09:54:11.989Z,10.80
2022-09-24T09:56:49.885Z,10.07
2022-09-24T09:59:19.645Z,11.30
2022-09-24T10:01:48.688Z,10.27
2022-09-24T10:04:22.486Z,10.00
2022-09-24T10:06:50.422Z,10.07
2022-09-24T10:09:22.235Z,10.17
2022-09-24T10:11:50.181Z,8.67
2022-09-24T10:14:20.902Z,9.97
2022-09-24T10:16:56.200Z,11.93
2022-09-24T10:19:28.978Z,8.63
2022-09-24T10:22:00.469Z,8.37
2022-09-24T10:24:29.573Z,11.17
2022-09-24T10:26:58.552Z,9.60
2022-09-24T10:29:45.207Z,9.90
2022-09-24T10:32:18.642Z,9.73
2022-09-24T10:35:09.409Z,9.93
2022-09-24T10:37:37.392Z,9.27
2022-09-24T10:40:05.298Z,8.67
2022-09-24T10:42:33.258Z,9.10
2022-09-24T10:45:01.886Z,10.40
2022-09-24T10:47:48.523Z,10.03
2022-09-24T10:50:32.635Z,10.57
2022-09-24T10:53:30.103Z,11.03
2022-09-24T10:55:58.183Z,8.83
2022-09-24T10:58:26.416Z,10.23
2022-09-24T11:00:58.320Z,8.47
2022-09-24T11:03:45.183Z,11.20
2022-09-24T11:06:22.335Z,8.60
2022-09-24T11:08:59.437Z,8.50
2022-09-24T11:11:50.227Z,9.13
2022-09-24T11:14:18.137Z,9.73
2022-09-24T11:17:02.215Z,8.87
2022-09-24T11:19:33.543Z,8.37
2022-09-24T11:22:09.915Z,9.07
2022-09-24T11:24:47.164Z,10.00
2022-09-24T11:27:15.019Z,10.57
2022-09-24T11:30:01.240Z,8.30
2022-09-24T11:32:42.774Z,9.47
2022-09-24T11:35:16.904Z,10.50
2022-09-24T11:38:06.799Z,9.93
2022-09-24T11:40:41.862Z,9.97
2022-09-24T11:43:16.119Z,10.77
2022-09-24T11:45:47.264Z,10.27
2022-09-24T11:48:33.697Z,9.43
2022-09-24T11:51:22.762Z,9.57
2022-09-24T11:53:53.767Z,10.37
2022-09-24T11:56:21.671Z,9.53
2022-09-24T11:58:53.708Z,10.67
2022-09-24T12:01:27.238Z,8.00
2022-09-24T12:04:01.425Z,9.43
2022-09-24T12:06:34.042Z,9.13
2022-09-24T12:09:17.339Z,9.50
2022-09-24T12:11:50.253Z,10.83
2022-09-24T12:14:24.238Z,8.70
2022-09-24T12:16:58.258Z,10.30
2022-09-24T12:19:37.802Z,11.43
2022-09-24T12:22:06.320Z,9.53
2022-09-24T12:24:40.181Z,11.83
2022-09-24T12:27:16.160Z,8.83
2022-09-24T12:30:05.303Z,8.70
2022-09-24T12:32:54.648Z,10.90
2022-09-24T12:35:34.970Z,9.17
2022-09-24T12:38:06.072Z,10.00
2022-09-24T12:40:44.635Z,9.00
2022-09-24T12:43:25.520Z,9.23
2022-09-24T12:46:02.535Z,8.67
2022-09-24T12:48:32.334Z,10.67
2022-09-24T12:51:01.216Z,11.33
2022-09-24T12:53:36.874Z,9.30
2022-09-24T12:56:05.602Z,10.03
2022-09-24T12:58:41.810Z,11.00
2022-09-24T13:01:27.309Z,8.80
2022-09-24T13:04:26.589Z,8.77
2022-09-24T13:06:54.966Z,9.33
2022-09-24T13:09:26.180Z,10.13
2022-09-24T13:12:04.680Z,10.70
2022-09-24T13:14:33.864Z,11.10
2022-09-24T13:17:05.964Z,11.27
2022-09-24T13:19:41.209Z,10.63
2022-09-24T13:22:21.760Z,9.20
2022-09-24T13:24:51.117Z,11.00
2022-09-24T13:27:22.133Z,11.63
2022-09-24T13:30:01.853Z,8.97
2022-09-24T13:32:34.747Z,9.47
2022-09-24T13:35:08.162Z,9.47
2022-09-24T13:37:39.379Z,10.33
2022-09-24T13:40:08.704Z,9.53
2022-09-24T13:42:39.533Z,10.40
2022-09-24T13:45:11.634Z,9.33
2022-09-24T13:47:54.882Z,10.80
2022-09-24T13:50:39.548Z,8.50
2022-09-24T13:53:10.497Z,10.27
2022-09-24T13:55:45.426Z,12.60
2022-09-24T13:58:29.464Z,10.00
2022-09-24T14:00:58.684Z,10.57
2022-09-24T14:03:33.001Z,9.90
2022-09-24T14:06:01.651Z,11.03
2022-09-24T14:08:30.481Z,10.63
2022-09-24T14:11:11.032Z,9.87
2022-09-24T14:13:45.381Z,11.23
2022-09-24T14:16:20.655Z,10.43
2022-09-24T14:18:49.248Z,9.80
2022-09-24T14:21:17.123Z,9.73
2022-09-24T14:23:48.460Z,9.83
2022-09-24T14:26:36.572Z,9.30
2022-09-24T14:29:14.213Z,11.43
2022-09-24T14:31:47.351Z,10.50
2022-09-24T14:34:38.616Z,10.17
2022-09-24T14:37:42.026Z,10.35
2022-09-24T14:40:17.087Z,12.35
2022-09-24T14:42:47.098Z,8.20
2022-09-24T14:45:22.554Z,10.13
2022-09-24T14:48:01.110Z,10.75
2022-09-24T14:50:35.695Z,9.07
2022-09-24T14:53:03.735Z,8.75
2022-09-24T14:55:38.825Z,9.65
2022-09-24T14:58:07.147Z,9.40
2022-09-24T15:00:55.835Z,9.70
2022-09-24T15:03:28.604Z,9.55
2022-09-24T15:06:03.998Z,11.63
2022-09-24T15:08:32.097Z,9.25
2022-09-24T15:11:01.870Z,13.73
2022-09-24T15:13:37.193Z,10.77
2022-09-24T15:16:22.454Z,10.25
2022-09-24T15:19:14.513Z,9.35
2022-09-24T15:21:42.508Z,10.98
2022-09-24T15:24:10.737Z,11.45
2022-09-24T15:26:40.304Z,12.60
2022-09-24T15:29:08.274Z,11.50
2022-09-24T15:31:36.307Z,10.55
2022-09-24T15:34:04.262Z,9.90
2022-09-24T15:36:32.525Z,8.57
2022-09-24T15:39:03.341Z,9.95
2022-09-24T15:41:31.391Z,10.27
2022-09-24T15:43:59.868Z,11.05
2022-09-24T15:46:28.247Z,9.30
2022-09-24T15:48:56.258Z,10.05
2022-09-24T15:51:24.531Z,8.85
2022-09-24T15:53:52.551Z,11.13
2022-09-24T15:56:20.491Z,9.43
2022-09-24T15:58:48.435Z,9.88
2022-09-24T16:01:19.363Z,12.07
2022-09-24T16:03:47.427Z,9.77
2022-09-24T16:06:15.292Z,11.40
2022-09-24T16:08:43.827Z,11.32
2022-09-24T16:11:11.706Z,11.63
2022-09-24T16:13:40.164Z,11.07
2022-09-24T16:16:11.391Z,14.75
2022-09-24T16:18:41.133Z,10.02
2022-09-24T16:21:09.581Z,11.27
2022-09-24T16:23:37.645Z,11.25
2022-09-24T16:26:05.569Z,12.35
2022-09-24T16:28:33.724Z,12.70
2022-09-24T16:31:06.734Z,11.00
2022-09-24T16:33:38.776Z,12.00
2022-09-24T16:36:07.225Z,12.13
2022-09-24T16:38:36.132Z,10.75
2022-09-24T16:41:04.417Z,9.77
2022-09-24T16:43:32.413Z,11.02
2022-09-24T16:46:07.757Z,9.43
2022-09-24T16:48:36.208Z,10.50
2022-09-24T16:51:05.442Z,9.90
2022-09-24T16:53:35.130Z,11.03
2022-09-24T16:56:13.437Z,9.80
2022-09-24T16:58:42.037Z,11.07
2022-09-24T17:01:20.197Z,10.50
2022-09-24T17:03:55.348Z,9.18
2022-09-24T17:06:24.603Z,10.98
2022-09-24T17:09:11.431Z,10.90
2022-09-24T17:11:40.903Z,9.17
2022-09-24T17:14:11.325Z,10.93
2022-09-24T17:16:40.226Z,9.65
2022-09-24T17:19:12.138Z,10.70
2022-09-24T17:21:40.938Z,9.60
2022-09-24T17:24:09.181Z,10.23
2022-09-24T17:26:37.474Z,11.20
2022-09-24T17:29:05.335Z,9.68
2022-09-24T17:31:33.342Z,10.70
2022-09-24T17:34:03.173Z,9.13
2022-09-24T17:36:32.810Z,10.63
2022-09-24T17:39:01.381Z,9.57
2022-09-24T17:41:30.524Z,9.02
2022-09-24T17:44:01.700Z,10.67
2022-09-24T17:46:30.877Z,9.13
2022-09-24T17:48:59.766Z,13.60
2022-09-24T17:51:30.650Z,10.73
2022-09-24T17:53:58.651Z,10.33
2022-09-24T17:56:27.545Z,11.65
2022-09-24T17:58:56.136Z,12.20
2022-09-24T18:01:25.394Z,10.23
2022-09-24T18:03:54.411Z,13.03
2022-09-24T18:06:26.332Z,12.93
2022-09-24T18:08:57.352Z,11.93
2022-09-24T18:11:26.755Z,11.90
2022-09-24T18:13:58.798Z,10.57
2022-09-24T18:16:28.237Z,12.30
2022-09-24T18:18:56.636Z,11.70
2022-09-24T18:21:25.060Z,12.27
2022-09-24T18:23:54.516Z,17.33
2022-09-24T18:26:22.616Z,12.40
2022-09-24T18:28:52.236Z,12.60
2022-09-24T18:31:21.021Z,21.80
2022-09-24T18:33:52.933Z,16.33
2022-09-24T18:36:21.852Z,13.03
2022-09-24T18:38:49.848Z,13.77
2022-09-24T18:41:21.108Z,14.30
2022-09-24T18:43:49.311Z,14.10
2022-09-24T18:46:18.397Z,12.93
2022-09-24T18:48:47.597Z,16.53
2022-09-24T18:51:17.098Z,11.93
2022-09-24T18:53:45.147Z,12.17
2022-09-24T18:56:13.080Z,12.60
2022-09-24T18:58:41.065Z,13.87
2022-09-24T19:01:09.945Z,14.20
2022-09-24T19:03:39.933Z,17.83
2022-09-24T19:06:08.579Z,14.73
2022-09-24T19:08:36.596Z,13.80
2022-09-24T19:11:07.935Z,11.33
2022-09-24T19:13:37.327Z,11.40
2022-09-24T19:16:13.020Z,12.43
2022-09-24T19:18:41.650Z,12.73
2022-09-24T19:21:10.984Z,13.73
2022-09-24T19:23:46.651Z,14.13
2022-09-24T19:26:16.403Z,12.43
2022-09-24T19:28:44.679Z,12.73
2022-09-24T19:31:16.721Z,11.97
2022-09-24T19:33:44.764Z,13.57
2022-09-24T19:36:13.467Z,15.03
2022-09-24T19:38:42.205Z,12.73
2022-09-24T19:41:10.914Z,12.20
2022-09-24T19:43:38.836Z,12.67
2022-09-24T19:46:08.121Z,14.37
2022-09-24T19:48:40.260Z,14.13
2022-09-24T19:51:09.624Z,13.87
2022-09-24T19:53:37.716Z,14.07
2022-09-24T19:56:06.856Z,15.30
2022-09-24T19:58:34.937Z,13.80
2022-09-24T20:01:04.358Z,12.87
2022-09-24T20:03:33.145Z,12.40
2022-09-24T20:06:01.231Z,12.70
2022-09-24T20:08:29.139Z,11.37
2022-09-24T20:10:57.084Z,11.90
2022-09-24T20:13:25.028Z,13.53
2022-09-24T20:15:58.571Z,12.67
2022-09-24T20:18:26.877Z,12.90
2022-09-24T20:20:55.071Z,11.70
2022-09-24T20:23:23.969Z,10.93
2022-09-24T20:26:10.857Z,11.10
2022-09-24T20:28:39.165Z,11.63
2022-09-24T20:31:13.589Z,11.70
2022-09-24T20:33:42.837Z,11.00
2022-09-24T20:36:16.602Z,10.33
2022-09-24T20:38:47.709Z,11.83
2022-09-24T20:41:17.335Z,12.57
2022-09-24T20:43:48.411Z,13.37
2022-09-24T20:46:34.553Z,12.40
2022-09-24T20:49:02.736Z,12.33
2022-09-24T20:51:32.033Z,12.27
2022-09-24T20:54:00.424Z,12.23
2022-09-24T20:56:30.866Z,15.43
2022-09-24T20:59:01.212Z,11.23
2022-09-24T21:01:29.277Z,13.23
2022-09-24T21:03:58.565Z,14.00
2022-09-24T21:06:26.720Z,12.27
2022-09-24T21:08:54.698Z,11.50
2022-09-24T21:11:24.253Z,13.87
2022-09-24T21:13:53.125Z,11.73
2022-09-24T21:16:22.170Z,13.80
2022-09-24T21:18:51.085Z,12.13
2022-09-24T21:21:20.268Z,10.90
2022-09-24T21:23:53.192Z,11.93
2022-09-24T21:26:25.316Z,12.10
2022-09-24T21:28:54.407Z,12.33
2022-09-24T21:31:24.100Z,12.40
2022-09-24T21:33:52.993Z,14.00
2022-09-24T21:36:22.408Z,16.50
2022-09-24T21:38:54.842Z,13.40
2022-09-24T21:41:29.767Z,12.67
2022-09-24T21:43:57.997Z,13.47
2022-09-24T21:46:26.840Z,13.40
2022-09-24T21:48:56.014Z,15.13
2022-09-24T21:51:24.247Z,15.00
2022-09-24T21:53:57.807Z,14.37
2022-09-24T21:56:26.882Z,12.73
2022-09-24T21:58:55.041Z,13.60
2022-09-24T22:01:27.924Z,12.63
2022-09-24T22:03:56.554Z,14.23
2022-09-24T22:06:27.424Z,12.10
2022-09-24T22:09:03.705Z,12.70
2022-09-24T22:11:31.633Z,11.87
2022-09-24T22:14:01.410Z,12.10
2022-09-24T22:16:30.180Z,11.93
2022-09-24T22:18:58.675Z,14.73
2022-09-24T22:21:26.610Z,11.97
2022-09-24T22:23:54.542Z,12.57
2022-09-24T22:26:22.577Z,13.30
2022-09-24T22:28:50.671Z,12.30
2022-09-24T22:31:19.420Z,12.67
2022-09-24T22:34:06.324Z,12.80
2022-09-24T22:36:35.617Z,13.17
2022-09-24T22:39:05.019Z,14.30
2022-09-24T22:41:34.526Z,13.53
2022-09-24T22:44:02.512Z,13.37
2022-09-24T22:46:31.933Z,13.93
2022-09-24T22:48:59.961Z,12.90
2022-09-24T22:51:27.923Z,13.50
2022-09-24T22:53:57.195Z,14.07
2022-09-24T22:56:26.198Z,13.20
2022-09-24T22:58:58.352Z,14.93
2022-09-24T23:01:28.166Z,13.33
2022-09-24T23:03:57.167Z,14.03
2022-09-24T23:06:25.493Z,14.27
2022-09-24T23:08:54.325Z,13.73
2022-09-24T23:11:23.877Z,12.77
2022-09-24T23:13:53.155Z,13.07
2022-09-24T23:16:22.890Z,12.80
2022-09-24T23:18:52.663Z,13.63
2022-09-24T23:21:21.543Z,13.63
2022-09-24T23:23:52.934Z,14.40
2022-09-24T23:26:21.607Z,14.10
2022-09-24T23:28:53.096Z,13.80
2022-09-24T23:31:23.200Z,11.93
2022-09-24T23:33:51.095Z,14.77
2022-09-24T23:36:19.088Z,14.10
2022-09-24T23:38:47.206Z,13.70
2022-09-24T23:41:15.387Z,12.57
2022-09-24T23:43:43.435Z,14.63
2022-09-24T23:46:11.586Z,13.67
2022-09-24T23:48:39.571Z,14.10
2022-09-24T23:51:07.940Z,13.27
2022-09-24T23:53:36.498Z,14.03
2022-09-24T23:56:05.519Z,14.47
2022-09-24T23:58:33.629Z,13.53
